sensor_id;sensor_type;location;lat;lon;timestamp;P1;durP1;ratioP1;P2;durP2;ratioP2
15712;SDS011;7957;51.608;6.916;2023-08-17T00:00:00;3.33;;;2.03;;
15712;SDS011;7957;51.608;6.916;2023-08-17T00:02:31;3.33;;;2.40;;
15712;SDS011;7957;51.608;6.916;2023-08-17T00:04:58;3.50;;;2.00;;
15712;SDS011;7957;51.608;6.916;2023-08-17T00:07:24;3.77;;;2.50;;
15712;SDS011;7957;51.608;6.916;2023-08-17T00:09:51;4.37;;;2.70;;
15712;SDS011;7957;51.608;6.916;2023-08-17T00:12:20;5.20;;;2.60;;
15712;SDS011;7957;51.608;6.916;2023-08-17T00:14:47;4.53;;;2.60;;
15712;SDS011;7957;51.608;6.916;2023-08-17T00:17:13;6.13;;;3.00;;
15712;SDS011;7957;51.608;6.916;2023-08-17T00:19:40;5.40;;;2.90;;
15712;SDS011;7957;51.608;6.916;2023-08-17T00:22:07;4.23;;;2.70;;
15712;SDS011;7957;51.608;6.916;2023-08-17T00:24:34;7.53;;;3.00;;
15712;SDS011;7957;51.608;6.916;2023-08-17T00:27:01;3.70;;;2.60;;
15712;SDS011;7957;51.608;6.916;2023-08-17T00:29:30;4.90;;;2.80;;
15712;SDS011;7957;51.608;6.916;2023-08-17T00:31:57;4.73;;;2.60;;
15712;SDS011;7957;51.608;6.916;2023-08-17T00:34:23;4.53;;;2.53;;
15712;SDS011;7957;51.608;6.916;2023-08-17T00:36:50;5.63;;;2.60;;
15712;SDS011;7957;51.608;6.916;2023-08-17T00:39:17;4.33;;;2.70;;
15712;SDS011;7957;51.608;6.916;2023-08-17T00:41:45;3.77;;;2.50;;
15712;SDS011;7957;51.608;6.916;2023-08-17T00:44:11;4.97;;;2.53;;
15712;SDS011;7957;51.608;6.916;2023-08-17T00:46:40;5.80;;;3.03;;
15712;SDS011;7957;51.608;6.916;2023-08-17T00:49:07;4.17;;;2.63;;
15712;SDS011;7957;51.608;6.916;2023-08-17T00:51:34;4.30;;;2.70;;
15712;SDS011;7957;51.608;6.916;2023-08-17T00:54:01;4.13;;;2.80;;
15712;SDS011;7957;51.608;6.916;2023-08-17T00:56:28;4.07;;;2.90;;
15712;SDS011;7957;51.608;6.916;2023-08-17T00:58:56;4.00;;;2.60;;
15712;SDS011;7957;51.608;6.916;2023-08-17T01:01:23;3.73;;;2.57;;
15712;SDS011;7957;51.608;6.916;2023-08-17T01:03:52;5.40;;;3.10;;
15712;SDS011;7957;51.608;6.916;2023-08-17T01:06:19;3.80;;;2.63;;
15712;SDS011;7957;51.608;6.916;2023-08-17T01:08:46;3.17;;;2.50;;
15712;SDS011;7957;51.608;6.916;2023-08-17T01:11:14;3.70;;;2.60;;
15712;SDS011;7957;51.608;6.916;2023-08-17T01:13:49;3.63;;;2.50;;
15712;SDS011;7957;51.608;6.916;2023-08-17T01:16:20;3.97;;;2.60;;
15712;SDS011;7957;51.608;6.916;2023-08-17T01:18:54;4.20;;;2.63;;
15712;SDS011;7957;51.608;6.916;2023-08-17T01:21:24;4.57;;;2.80;;
15712;SDS011;7957;51.608;6.916;2023-08-17T01:23:57;5.27;;;2.87;;
15712;SDS011;7957;51.608;6.916;2023-08-17T01:26:25;3.47;;;2.53;;
15712;SDS011;7957;51.608;6.916;2023-08-17T01:28:53;3.93;;;2.57;;
15712;SDS011;7957;51.608;6.916;2023-08-17T01:31:21;2.37;;;2.10;;
15712;SDS011;7957;51.608;6.916;2023-08-17T01:33:56;4.03;;;2.50;;
15712;SDS011;7957;51.608;6.916;2023-08-17T01:36:30;5.23;;;2.80;;
15712;SDS011;7957;51.608;6.916;2023-08-17T01:39:01;4.23;;;2.77;;
15712;SDS011;7957;51.608;6.916;2023-08-17T01:41:29;3.87;;;2.80;;
15712;SDS011;7957;51.608;6.916;2023-08-17T01:43:57;2.90;;;2.47;;
15712;SDS011;7957;51.608;6.916;2023-08-17T01:46:29;4.07;;;2.77;;
15712;SDS011;7957;51.608;6.916;2023-08-17T01:48:57;3.93;;;2.80;;
15712;SDS011;7957;51.608;6.916;2023-08-17T01:51:24;3.73;;;2.50;;
15712;SDS011;7957;51.608;6.916;2023-08-17T01:53:51;3.03;;;2.13;;
15712;SDS011;7957;51.608;6.916;2023-08-17T01:56:19;3.10;;;2.37;;
15712;SDS011;7957;51.608;6.916;2023-08-17T01:58:46;7.43;;;2.80;;
15712;SDS011;7957;51.608;6.916;2023-08-17T02:01:13;3.80;;;2.40;;
15712;SDS011;7957;51.608;6.916;2023-08-17T02:03:40;3.73;;;2.10;;
15712;SDS011;7957;51.608;6.916;2023-08-17T02:06:07;3.83;;;2.27;;
15712;SDS011;7957;51.608;6.916;2023-08-17T02:08:35;4.73;;;2.47;;
15712;SDS011;7957;51.608;6.916;2023-08-17T02:11:03;3.50;;;2.63;;
15712;SDS011;7957;51.608;6.916;2023-08-17T02:13:31;2.73;;;2.40;;
15712;SDS011;7957;51.608;6.916;2023-08-17T02:15:58;2.97;;;2.43;;
15712;SDS011;7957;51.608;6.916;2023-08-17T02:18:25;2.50;;;2.27;;
15712;SDS011;7957;51.608;6.916;2023-08-17T02:20:56;3.00;;;2.40;;
15712;SDS011;7957;51.608;6.916;2023-08-17T02:23:23;4.17;;;2.57;;
15712;SDS011;7957;51.608;6.916;2023-08-17T02:25:50;5.13;;;2.70;;
15712;SDS011;7957;51.608;6.916;2023-08-17T02:28:19;4.10;;;2.43;;
15712;SDS011;7957;51.608;6.916;2023-08-17T02:30:48;4.27;;;2.60;;
15712;SDS011;7957;51.608;6.916;2023-08-17T02:33:15;2.43;;;2.13;;
15712;SDS011;7957;51.608;6.916;2023-08-17T02:35:42;4.90;;;2.80;;
15712;SDS011;7957;51.608;6.916;2023-08-17T02:38:09;3.33;;;2.10;;
15712;SDS011;7957;51.608;6.916;2023-08-17T02:40:36;2.73;;;2.23;;
15712;SDS011;7957;51.608;6.916;2023-08-17T02:43:03;2.80;;;2.47;;
15712;SDS011;7957;51.608;6.916;2023-08-17T02:45:30;3.73;;;2.40;;
15712;SDS011;7957;51.608;6.916;2023-08-17T02:47:58;2.50;;;2.30;;
15712;SDS011;7957;51.608;6.916;2023-08-17T02:50:25;2.57;;;2.20;;
15712;SDS011;7957;51.608;6.916;2023-08-17T02:52:52;3.70;;;2.63;;
15712;SDS011;7957;51.608;6.916;2023-08-17T02:55:19;2.80;;;2.50;;
15712;SDS011;7957;51.608;6.916;2023-08-17T02:57:46;3.97;;;2.50;;
15712;SDS011;7957;51.608;6.916;2023-08-17T03:00:13;3.03;;;2.40;;
15712;SDS011;7957;51.608;6.916;2023-08-17T03:02:40;4.50;;;2.53;;
15712;SDS011;7957;51.608;6.916;2023-08-17T03:05:09;4.63;;;2.40;;
15712;SDS011;7957;51.608;6.916;2023-08-17T03:07:36;2.83;;;2.30;;
15712;SDS011;7957;51.608;6.916;2023-08-17T03:10:03;3.13;;;2.63;;
15712;SDS011;7957;51.608;6.916;2023-08-17T03:12:30;3.17;;;2.40;;
15712;SDS011;7957;51.608;6.916;2023-08-17T03:14:57;3.03;;;2.50;;
15712;SDS011;7957;51.608;6.916;2023-08-17T03:17:24;2.97;;;2.60;;
15712;SDS011;7957;51.608;6.916;2023-08-17T03:19:51;2.57;;;2.30;;
15712;SDS011;7957;51.608;6.916;2023-08-17T03:22:20;4.10;;;2.67;;
15712;SDS011;7957;51.608;6.916;2023-08-17T03:24:47;4.33;;;2.63;;
15712;SDS011;7957;51.608;6.916;2023-08-17T03:27:14;3.83;;;2.50;;
15712;SDS011;7957;51.608;6.916;2023-08-17T03:29:41;4.07;;;2.67;;
15712;SDS011;7957;51.608;6.916;2023-08-17T03:32:08;3.23;;;2.67;;
15712;SDS011;7957;51.608;6.916;2023-08-17T03:34:35;3.63;;;2.40;;
15712;SDS011;7957;51.608;6.916;2023-08-17T03:37:03;3.57;;;2.50;;
15712;SDS011;7957;51.608;6.916;2023-08-17T03:39:32;3.00;;;2.70;;
15712;SDS011;7957;51.608;6.916;2023-08-17T03:41:59;3.63;;;2.57;;
15712;SDS011;7957;51.608;6.916;2023-08-17T03:44:27;3.53;;;2.60;;
15712;SDS011;7957;51.608;6.916;2023-08-17T03:46:54;3.80;;;3.10;;
15712;SDS011;7957;51.608;6.916;2023-08-17T03:49:21;3.80;;;2.60;;
15712;SDS011;7957;51.608;6.916;2023-08-17T03:51:48;4.80;;;3.07;;
15712;SDS011;7957;51.608;6.916;2023-08-17T03:54:15;3.27;;;2.30;;
15712;SDS011;7957;51.608;6.916;2023-08-17T03:56:45;3.00;;;2.70;;
15712;SDS011;7957;51.608;6.916;2023-08-17T03:59:13;3.50;;;2.87;;
15712;SDS011;7957;51.608;6.916;2023-08-17T04:01:41;5.03;;;2.70;;
15712;SDS011;7957;51.608;6.916;2023-08-17T04:04:09;4.57;;;2.87;;
15712;SDS011;7957;51.608;6.916;2023-08-17T04:06:38;4.53;;;2.70;;
15712;SDS011;7957;51.608;6.916;2023-08-17T04:09:06;4.80;;;2.97;;
15712;SDS011;7957;51.608;6.916;2023-08-17T04:11:35;6.13;;;2.93;;
15712;SDS011;7957;51.608;6.916;2023-08-17T04:14:04;3.10;;;2.80;;
15712;SDS011;7957;51.608;6.916;2023-08-17T04:16:31;3.00;;;2.70;;
15712;SDS011;7957;51.608;6.916;2023-08-17T04:19:01;4.40;;;2.80;;
15712;SDS011;7957;51.608;6.916;2023-08-17T04:21:28;4.37;;;3.17;;
15712;SDS011;7957;51.608;6.916;2023-08-17T04:23:55;4.60;;;2.80;;
15712;SDS011;7957;51.608;6.916;2023-08-17T04:26:22;2.93;;;2.67;;
15712;SDS011;7957;51.608;6.916;2023-08-17T04:28:49;6.57;;;3.27;;
15712;SDS011;7957;51.608;6.916;2023-08-17T04:31:17;4.83;;;3.20;;
15712;SDS011;7957;51.608;6.916;2023-08-17T04:33:47;3.63;;;2.80;;
15712;SDS011;7957;51.608;6.916;2023-08-17T04:36:14;4.63;;;3.30;;
15712;SDS011;7957;51.608;6.916;2023-08-17T04:38:41;5.67;;;3.20;;
15712;SDS011;7957;51.608;6.916;2023-08-17T04:41:08;3.20;;;2.83;;
15712;SDS011;7957;51.608;6.916;2023-08-17T04:43:35;5.00;;;3.10;;
15712;SDS011;7957;51.608;6.916;2023-08-17T04:46:02;3.60;;;2.93;;
15712;SDS011;7957;51.608;6.916;2023-08-17T04:48:31;3.43;;;3.07;;
15712;SDS011;7957;51.608;6.916;2023-08-17T04:53:49;4.30;;;3.07;;
15712;SDS011;7957;51.608;6.916;2023-08-17T04:56:17;4.13;;;3.00;;
15712;SDS011;7957;51.608;6.916;2023-08-17T04:58:43;4.10;;;2.90;;
15712;SDS011;7957;51.608;6.916;2023-08-17T05:01:10;4.37;;;2.90;;
15712;SDS011;7957;51.608;6.916;2023-08-17T05:03:39;3.73;;;3.10;;
15712;SDS011;7957;51.608;6.916;2023-08-17T05:06:06;4.73;;;2.90;;
15712;SDS011;7957;51.608;6.916;2023-08-17T05:08:33;3.80;;;2.70;;
15712;SDS011;7957;51.608;6.916;2023-08-17T05:11:00;4.07;;;3.10;;
15712;SDS011;7957;51.608;6.916;2023-08-17T05:13:27;4.23;;;2.80;;
15712;SDS011;7957;51.608;6.916;2023-08-17T05:15:54;4.57;;;3.10;;
15712;SDS011;7957;51.608;6.916;2023-08-17T05:18:21;5.17;;;2.83;;
15712;SDS011;7957;51.608;6.916;2023-08-17T05:20:50;5.67;;;3.40;;
15712;SDS011;7957;51.608;6.916;2023-08-17T05:23:17;4.70;;;2.80;;
15712;SDS011;7957;51.608;6.916;2023-08-17T05:25:45;4.27;;;2.80;;
15712;SDS011;7957;51.608;6.916;2023-08-17T05:28:15;4.23;;;2.83;;
15712;SDS011;7957;51.608;6.916;2023-08-17T05:30:42;4.63;;;2.97;;
15712;SDS011;7957;51.608;6.916;2023-08-17T05:33:10;2.97;;;2.40;;
15712;SDS011;7957;51.608;6.916;2023-08-17T05:35:36;3.43;;;2.80;;
15712;SDS011;7957;51.608;6.916;2023-08-17T05:38:05;4.87;;;3.00;;
15712;SDS011;7957;51.608;6.916;2023-08-17T05:40:32;6.30;;;3.00;;
15712;SDS011;7957;51.608;6.916;2023-08-17T05:42:59;3.43;;;2.80;;
15712;SDS011;7957;51.608;6.916;2023-08-17T05:45:26;5.80;;;2.90;;
15712;SDS011;7957;51.608;6.916;2023-08-17T05:47:53;3.40;;;2.67;;
15712;SDS011;7957;51.608;6.916;2023-08-17T05:50:20;3.23;;;2.60;;
15712;SDS011;7957;51.608;6.916;2023-08-17T05:52:47;5.30;;;3.00;;
15712;SDS011;7957;51.608;6.916;2023-08-17T05:55:15;4.67;;;3.00;;
15712;SDS011;7957;51.608;6.916;2023-08-17T05:57:42;4.97;;;2.67;;
15712;SDS011;7957;51.608;6.916;2023-08-17T06:00:10;3.10;;;2.67;;
15712;SDS011;7957;51.608;6.916;2023-08-17T06:02:38;4.23;;;2.87;;
15712;SDS011;7957;51.608;6.916;2023-08-17T06:05:05;4.37;;;3.10;;
15712;SDS011;7957;51.608;6.916;2023-08-17T06:07:32;4.37;;;2.90;;
15712;SDS011;7957;51.608;6.916;2023-08-17T06:09:59;3.30;;;2.80;;
15712;SDS011;7957;51.608;6.916;2023-08-17T06:12:28;4.20;;;3.17;;
15712;SDS011;7957;51.608;6.916;2023-08-17T06:14:55;3.50;;;2.63;;
15712;SDS011;7957;51.608;6.916;2023-08-17T06:17:22;4.33;;;2.83;;
15712;SDS011;7957;51.608;6.916;2023-08-17T06:19:49;3.50;;;3.10;;
15712;SDS011;7957;51.608;6.916;2023-08-17T06:22:15;4.00;;;3.03;;
15712;SDS011;7957;51.608;6.916;2023-08-17T06:24:42;3.27;;;2.77;;
15712;SDS011;7957;51.608;6.916;2023-08-17T06:27:11;3.87;;;2.67;;
15712;SDS011;7957;51.608;6.916;2023-08-17T06:29:42;4.13;;;2.90;;
15712;SDS011;7957;51.608;6.916;2023-08-17T06:32:09;3.87;;;2.80;;
15712;SDS011;7957;51.608;6.916;2023-08-17T06:34:36;3.67;;;2.80;;
15712;SDS011;7957;51.608;6.916;2023-08-17T06:37:03;3.33;;;2.87;;
15712;SDS011;7957;51.608;6.916;2023-08-17T06:39:30;4.80;;;2.93;;
15712;SDS011;7957;51.608;6.916;2023-08-17T06:41:57;5.97;;;3.03;;
15712;SDS011;7957;51.608;6.916;2023-08-17T06:44:24;3.63;;;2.77;;
15712;SDS011;7957;51.608;6.916;2023-08-17T06:46:53;5.13;;;3.00;;
15712;SDS011;7957;51.608;6.916;2023-08-17T06:49:20;4.30;;;3.20;;
15712;SDS011;7957;51.608;6.916;2023-08-17T06:51:47;5.53;;;2.80;;
15712;SDS011;7957;51.608;6.916;2023-08-17T06:54:13;3.93;;;3.00;;
15712;SDS011;7957;51.608;6.916;2023-08-17T06:56:40;3.53;;;2.73;;
15712;SDS011;7957;51.608;6.916;2023-08-17T06:59:07;4.23;;;3.00;;
15712;SDS011;7957;51.608;6.916;2023-08-17T07:01:34;3.93;;;3.00;;
15712;SDS011;7957;51.608;6.916;2023-08-17T07:04:03;3.23;;;2.93;;
15712;SDS011;7957;51.608;6.916;2023-08-17T07:06:30;6.80;;;3.27;;
15712;SDS011;7957;51.608;6.916;2023-08-17T07:08:58;3.00;;;2.53;;
15712;SDS011;7957;51.608;6.916;2023-08-17T07:11:25;5.07;;;3.07;;
15712;SDS011;7957;51.608;6.916;2023-08-17T07:13:52;4.83;;;3.40;;
15712;SDS011;7957;51.608;6.916;2023-08-17T07:16:19;4.97;;;3.23;;
15712;SDS011;7957;51.608;6.916;2023-08-17T07:18:46;4.43;;;3.17;;
15712;SDS011;7957;51.608;6.916;2023-08-17T07:21:14;3.10;;;2.80;;
15712;SDS011;7957;51.608;6.916;2023-08-17T07:23:44;5.10;;;3.30;;
15712;SDS011;7957;51.608;6.916;2023-08-17T07:26:11;3.07;;;2.80;;
15712;SDS011;7957;51.608;6.916;2023-08-17T07:28:38;5.30;;;3.37;;
15712;SDS011;7957;51.608;6.916;2023-08-17T07:31:05;4.90;;;3.30;;
15712;SDS011;7957;51.608;6.916;2023-08-17T07:33:32;4.70;;;3.50;;
15712;SDS011;7957;51.608;6.916;2023-08-17T07:35:59;6.60;;;3.90;;
15712;SDS011;7957;51.608;6.916;2023-08-17T07:38:28;3.73;;;3.33;;
15712;SDS011;7957;51.608;6.916;2023-08-17T07:40:54;4.43;;;3.20;;
15712;SDS011;7957;51.608;6.916;2023-08-17T07:43:21;4.90;;;3.60;;
15712;SDS011;7957;51.608;6.916;2023-08-17T07:45:52;5.33;;;4.23;;
15712;SDS011;7957;51.608;6.916;2023-08-17T07:48:19;6.30;;;3.90;;
15712;SDS011;7957;51.608;6.916;2023-08-17T07:50:47;5.17;;;4.00;;
15712;SDS011;7957;51.608;6.916;2023-08-17T07:53:15;7.47;;;4.67;;
15712;SDS011;7957;51.608;6.916;2023-08-17T07:55:43;5.47;;;4.23;;
15712;SDS011;7957;51.608;6.916;2023-08-17T07:58:11;5.97;;;4.37;;
15712;SDS011;7957;51.608;6.916;2023-08-17T08:00:38;6.03;;;4.33;;
15712;SDS011;7957;51.608;6.916;2023-08-17T08:03:05;6.23;;;4.70;;
15712;SDS011;7957;51.608;6.916;2023-08-17T08:05:32;5.83;;;4.23;;
15712;SDS011;7957;51.608;6.916;2023-08-17T08:07:59;5.10;;;4.57;;
15712;SDS011;7957;51.608;6.916;2023-08-17T08:10:26;6.83;;;5.40;;
15712;SDS011;7957;51.608;6.916;2023-08-17T08:12:55;6.13;;;5.30;;
15712;SDS011;7957;51.608;6.916;2023-08-17T08:15:22;6.70;;;4.90;;
15712;SDS011;7957;51.608;6.916;2023-08-17T08:17:49;8.33;;;5.57;;
15712;SDS011;7957;51.608;6.916;2023-08-17T08:20:16;6.10;;;5.60;;
15712;SDS011;7957;51.608;6.916;2023-08-17T08:22:42;7.43;;;5.17;;
15712;SDS011;7957;51.608;6.916;2023-08-17T08:25:09;7.60;;;5.87;;
15712;SDS011;7957;51.608;6.916;2023-08-17T08:27:36;7.23;;;5.80;;
15712;SDS011;7957;51.608;6.916;2023-08-17T08:30:05;7.93;;;5.70;;
15712;SDS011;7957;51.608;6.916;2023-08-17T08:32:33;7.50;;;6.50;;
15712;SDS011;7957;51.608;6.916;2023-08-17T08:35:00;7.20;;;6.43;;
15712;SDS011;7957;51.608;6.916;2023-08-17T08:37:27;8.47;;;7.40;;
15712;SDS011;7957;51.608;6.916;2023-08-17T08:39:55;9.07;;;7.47;;
15712;SDS011;7957;51.608;6.916;2023-08-17T08:42:22;8.47;;;7.43;;
15712;SDS011;7957;51.608;6.916;2023-08-17T08:44:51;9.93;;;8.20;;
15712;SDS011;7957;51.608;6.916;2023-08-17T08:47:20;9.23;;;7.40;;
15712;SDS011;7957;51.608;6.916;2023-08-17T08:49:49;9.10;;;7.63;;
15712;SDS011;7957;51.608;6.916;2023-08-17T08:52:26;11.07;;;7.80;;
15712;SDS011;7957;51.608;6.916;2023-08-17T08:54:58;10.50;;;7.60;;
15712;SDS011;7957;51.608;6.916;2023-08-17T08:57:27;9.77;;;8.10;;
15712;SDS011;7957;51.608;6.916;2023-08-17T08:59:55;9.93;;;8.90;;
15712;SDS011;7957;51.608;6.916;2023-08-17T09:02:24;9.57;;;8.10;;
15712;SDS011;7957;51.608;6.916;2023-08-17T09:04:52;10.30;;;9.13;;
15712;SDS011;7957;51.608;6.916;2023-08-17T09:07:19;10.20;;;8.43;;
15712;SDS011;7957;51.608;6.916;2023-08-17T09:09:48;10.17;;;9.10;;
15712;SDS011;7957;51.608;6.916;2023-08-17T09:12:15;12.17;;;8.90;;
15712;SDS011;7957;51.608;6.916;2023-08-17T09:14:42;10.43;;;8.90;;
15712;SDS011;7957;51.608;6.916;2023-08-17T09:17:09;10.70;;;9.60;;
15712;SDS011;7957;51.608;6.916;2023-08-17T09:19:37;11.17;;;10.07;;
15712;SDS011;7957;51.608;6.916;2023-08-17T09:22:04;10.40;;;9.43;;
15712;SDS011;7957;51.608;6.916;2023-08-17T09:24:34;11.57;;;10.47;;
15712;SDS011;7957;51.608;6.916;2023-08-17T09:27:02;11.63;;;10.37;;
15712;SDS011;7957;51.608;6.916;2023-08-17T09:29:30;11.67;;;10.57;;
15712;SDS011;7957;51.608;6.916;2023-08-17T09:32:03;13.57;;;10.70;;
15712;SDS011;7957;51.608;6.916;2023-08-17T09:34:31;12.40;;;11.03;;
15712;SDS011;7957;51.608;6.916;2023-08-17T09:37:03;11.87;;;10.67;;
15712;SDS011;7957;51.608;6.916;2023-08-17T09:39:30;11.83;;;10.50;;
15712;SDS011;7957;51.608;6.916;2023-08-17T09:41:57;20.00;;;13.97;;
15712;SDS011;7957;51.608;6.916;2023-08-17T09:44:28;19.73;;;12.90;;
15712;SDS011;7957;51.608;6.916;2023-08-17T09:46:55;14.67;;;12.30;;
15712;SDS011;7957;51.608;6.916;2023-08-17T09:49:23;21.27;;;12.77;;
15712;SDS011;7957;51.608;6.916;2023-08-17T09:51:50;15.23;;;12.20;;
15712;SDS011;7957;51.608;6.916;2023-08-17T09:54:21;17.77;;;12.60;;
15712;SDS011;7957;51.608;6.916;2023-08-17T09:56:49;18.90;;;12.37;;
15712;SDS011;7957;51.608;6.916;2023-08-17T09:59:17;12.43;;;11.13;;
15712;SDS011;7957;51.608;6.916;2023-08-17T10:01:44;14.03;;;11.83;;
15712;SDS011;7957;51.608;6.916;2023-08-17T10:04:14;15.20;;;11.80;;
15712;SDS011;7957;51.608;6.916;2023-08-17T10:06:44;12.60;;;11.40;;
15712;SDS011;7957;51.608;6.916;2023-08-17T10:09:14;15.20;;;11.93;;
15712;SDS011;7957;51.608;6.916;2023-08-17T10:11:45;13.93;;;11.93;;
15712;SDS011;7957;51.608;6.916;2023-08-17T10:14:15;14.20;;;12.80;;
15712;SDS011;7957;51.608;6.916;2023-08-17T10:16:49;13.33;;;11.93;;
15712;SDS011;7957;51.608;6.916;2023-08-17T10:19:25;14.13;;;12.53;;
15712;SDS011;7957;51.608;6.916;2023-08-17T10:22:01;16.37;;;12.07;;
15712;SDS011;7957;51.608;6.916;2023-08-17T10:24:33;14.23;;;11.83;;
15712;SDS011;7957;51.608;6.916;2023-08-17T10:27:04;12.40;;;11.10;;
15712;SDS011;7957;51.608;6.916;2023-08-17T10:29:32;12.53;;;11.23;;
15712;SDS011;7957;51.608;6.916;2023-08-17T10:32:01;13.40;;;12.10;;
15712;SDS011;7957;51.608;6.916;2023-08-17T10:34:28;13.23;;;11.07;;
15712;SDS011;7957;51.608;6.916;2023-08-17T10:36:55;14.37;;;11.13;;
15712;SDS011;7957;51.608;6.916;2023-08-17T10:39:25;12.40;;;11.20;;
15712;SDS011;7957;51.608;6.916;2023-08-17T10:41:54;12.20;;;11.00;;
15712;SDS011;7957;51.608;6.916;2023-08-17T10:44:42;12.20;;;10.90;;
15712;SDS011;7957;51.608;6.916;2023-08-17T10:47:20;12.40;;;11.10;;
15712;SDS011;7957;51.608;6.916;2023-08-17T10:49:49;12.47;;;11.27;;
15712;SDS011;7957;51.608;6.916;2023-08-17T10:52:24;13.47;;;12.07;;
15712;SDS011;7957;51.608;6.916;2023-08-17T10:54:52;13.57;;;12.20;;
15712;SDS011;7957;51.608;6.916;2023-08-17T10:57:30;14.30;;;12.90;;
15712;SDS011;7957;51.608;6.916;2023-08-17T11:00:06;13.77;;;12.33;;
15712;SDS011;7957;51.608;6.916;2023-08-17T11:02:42;13.50;;;12.20;;
15712;SDS011;7957;51.608;6.916;2023-08-17T11:05:10;14.40;;;13.00;;
15712;SDS011;7957;51.608;6.916;2023-08-17T11:07:38;13.30;;;12.03;;
15712;SDS011;7957;51.608;6.916;2023-08-17T11:10:26;12.57;;;11.27;;
15712;SDS011;7957;51.608;6.916;2023-08-17T11:12:54;12.20;;;10.17;;
15712;SDS011;7957;51.608;6.916;2023-08-17T11:15:26;11.20;;;10.20;;
15712;SDS011;7957;51.608;6.916;2023-08-17T11:18:03;12.47;;;11.27;;
15712;SDS011;7957;51.608;6.916;2023-08-17T11:20:30;11.97;;;10.73;;
15712;SDS011;7957;51.608;6.916;2023-08-17T11:22:57;14.07;;;12.63;;
15712;SDS011;7957;51.608;6.916;2023-08-17T11:25:25;12.67;;;11.53;;
15712;SDS011;7957;51.608;6.916;2023-08-17T11:27:52;12.90;;;11.83;;
15712;SDS011;7957;51.608;6.916;2023-08-17T11:30:20;13.00;;;11.80;;
15712;SDS011;7957;51.608;6.916;2023-08-17T11:32:49;13.43;;;12.23;;
15712;SDS011;7957;51.608;6.916;2023-08-17T11:35:17;13.60;;;12.30;;
15712;SDS011;7957;51.608;6.916;2023-08-17T11:37:44;13.97;;;11.97;;
15712;SDS011;7957;51.608;6.916;2023-08-17T11:40:11;14.20;;;12.80;;
15712;SDS011;7957;51.608;6.916;2023-08-17T11:42:38;12.63;;;11.53;;
15712;SDS011;7957;51.608;6.916;2023-08-17T11:45:06;13.63;;;12.40;;
15712;SDS011;7957;51.608;6.916;2023-08-17T11:47:35;13.57;;;12.33;;
15712;SDS011;7957;51.608;6.916;2023-08-17T11:50:04;14.03;;;12.73;;
15712;SDS011;7957;51.608;6.916;2023-08-17T11:52:32;14.63;;;13.33;;
15712;SDS011;7957;51.608;6.916;2023-08-17T11:55:01;13.13;;;11.93;;
15712;SDS011;7957;51.608;6.916;2023-08-17T11:57:29;13.20;;;12.00;;
15712;SDS011;7957;51.608;6.916;2023-08-17T11:59:56;13.13;;;11.93;;
15712;SDS011;7957;51.608;6.916;2023-08-17T12:02:24;14.03;;;12.83;;
15712;SDS011;7957;51.608;6.916;2023-08-17T12:04:51;12.83;;;11.63;;
15712;SDS011;7957;51.608;6.916;2023-08-17T12:07:21;12.60;;;11.33;;
15712;SDS011;7957;51.608;6.916;2023-08-17T12:09:49;14.10;;;12.70;;
15712;SDS011;7957;51.608;6.916;2023-08-17T12:12:17;13.63;;;12.33;;
15712;SDS011;7957;51.608;6.916;2023-08-17T12:14:45;13.60;;;12.30;;
15712;SDS011;7957;51.608;6.916;2023-08-17T12:17:13;14.40;;;13.00;;
15712;SDS011;7957;51.608;6.916;2023-08-17T12:19:41;14.83;;;13.43;;
15712;SDS011;7957;51.608;6.916;2023-08-17T12:22:08;13.87;;;12.67;;
15712;SDS011;7957;51.608;6.916;2023-08-17T12:24:40;13.87;;;12.57;;
15712;SDS011;7957;51.608;6.916;2023-08-17T12:27:07;15.20;;;13.87;;
15712;SDS011;7957;51.608;6.916;2023-08-17T12:29:34;14.07;;;12.77;;
15712;SDS011;7957;51.608;6.916;2023-08-17T12:32:12;14.80;;;13.40;;
15712;SDS011;7957;51.608;6.916;2023-08-17T12:34:40;16.43;;;14.83;;
15712;SDS011;7957;51.608;6.916;2023-08-17T12:37:07;15.17;;;13.83;;
15712;SDS011;7957;51.608;6.916;2023-08-17T12:39:34;15.73;;;14.33;;
15712;SDS011;7957;51.608;6.916;2023-08-17T12:42:03;15.07;;;13.67;;
15712;SDS011;7957;51.608;6.916;2023-08-17T12:44:30;14.23;;;12.87;;
15712;SDS011;7957;51.608;6.916;2023-08-17T12:46:57;15.97;;;14.57;;
15712;SDS011;7957;51.608;6.916;2023-08-17T12:49:24;15.00;;;13.60;;
15712;SDS011;7957;51.608;6.916;2023-08-17T12:51:51;14.23;;;13.03;;
15712;SDS011;7957;51.608;6.916;2023-08-17T12:54:18;15.00;;;13.80;;
15712;SDS011;7957;51.608;6.916;2023-08-17T12:56:45;14.57;;;13.23;;
15712;SDS011;7957;51.608;6.916;2023-08-17T12:59:13;15.37;;;13.87;;
15712;SDS011;7957;51.608;6.916;2023-08-17T13:01:40;15.60;;;14.10;;
15712;SDS011;7957;51.608;6.916;2023-08-17T13:04:07;14.67;;;13.27;;
15712;SDS011;7957;51.608;6.916;2023-08-17T13:06:34;15.83;;;14.37;;
15712;SDS011;7957;51.608;6.916;2023-08-17T13:09:01;14.93;;;13.57;;
15712;SDS011;7957;51.608;6.916;2023-08-17T13:11:28;14.30;;;13.00;;
15712;SDS011;7957;51.608;6.916;2023-08-17T13:13:55;15.10;;;13.70;;
15712;SDS011;7957;51.608;6.916;2023-08-17T13:16:23;13.90;;;12.70;;
15712;SDS011;7957;51.608;6.916;2023-08-17T13:18:50;14.60;;;13.20;;
15712;SDS011;7957;51.608;6.916;2023-08-17T13:21:17;14.23;;;13.03;;
15712;SDS011;7957;51.608;6.916;2023-08-17T13:23:46;14.50;;;13.20;;
15712;SDS011;7957;51.608;6.916;2023-08-17T13:26:13;14.07;;;12.67;;
15712;SDS011;7957;51.608;6.916;2023-08-17T13:28:40;14.57;;;12.97;;
15712;SDS011;7957;51.608;6.916;2023-08-17T13:31:07;14.33;;;13.13;;
15712;SDS011;7957;51.608;6.916;2023-08-17T13:33:35;14.67;;;13.23;;
15712;SDS011;7957;51.608;6.916;2023-08-17T13:36:02;12.90;;;11.73;;
15712;SDS011;7957;51.608;6.916;2023-08-17T13:38:29;13.30;;;12.10;;
15712;SDS011;7957;51.608;6.916;2023-08-17T13:40:56;12.47;;;11.27;;
15712;SDS011;7957;51.608;6.916;2023-08-17T13:43:23;13.10;;;11.73;;
15712;SDS011;7957;51.608;6.916;2023-08-17T13:45:50;12.23;;;11.03;;
15712;SDS011;7957;51.608;6.916;2023-08-17T13:48:17;12.40;;;11.40;;
15712;SDS011;7957;51.608;6.916;2023-08-17T13:50:45;12.37;;;11.23;;
15712;SDS011;7957;51.608;6.916;2023-08-17T13:53:12;12.33;;;11.20;;
15712;SDS011;7957;51.608;6.916;2023-08-17T13:55:39;12.23;;;11.13;;
15712;SDS011;7957;51.608;6.916;2023-08-17T13:58:06;11.80;;;10.80;;
15712;SDS011;7957;51.608;6.916;2023-08-17T14:00:35;11.80;;;10.70;;
15712;SDS011;7957;51.608;6.916;2023-08-17T14:03:02;11.10;;;10.20;;
15712;SDS011;7957;51.608;6.916;2023-08-17T14:05:29;12.67;;;10.83;;
15712;SDS011;7957;51.608;6.916;2023-08-17T14:07:58;10.27;;;9.37;;
15712;SDS011;7957;51.608;6.916;2023-08-17T14:10:24;11.17;;;10.00;;
15712;SDS011;7957;51.608;6.916;2023-08-17T14:12:51;12.50;;;11.20;;
15712;SDS011;7957;51.608;6.916;2023-08-17T14:15:18;11.57;;;10.57;;
15712;SDS011;7957;51.608;6.916;2023-08-17T14:17:46;11.00;;;10.00;;
15712;SDS011;7957;51.608;6.916;2023-08-17T14:20:13;11.23;;;10.23;;
15712;SDS011;7957;51.608;6.916;2023-08-17T14:22:40;11.33;;;10.23;;
15712;SDS011;7957;51.608;6.916;2023-08-17T14:25:09;11.27;;;10.17;;
15712;SDS011;7957;51.608;6.916;2023-08-17T14:27:35;11.23;;;10.30;;
15712;SDS011;7957;51.608;6.916;2023-08-17T14:30:03;11.87;;;10.87;;
15712;SDS011;7957;51.608;6.916;2023-08-17T14:32:30;10.90;;;9.83;;
15712;SDS011;7957;51.608;6.916;2023-08-17T14:34:57;10.20;;;9.20;;
15712;SDS011;7957;51.608;6.916;2023-08-17T14:37:24;11.37;;;10.20;;
15712;SDS011;7957;51.608;6.916;2023-08-17T14:39:51;12.37;;;11.07;;
15712;SDS011;7957;51.608;6.916;2023-08-17T14:42:19;11.00;;;9.93;;
15712;SDS011;7957;51.608;6.916;2023-08-17T14:44:48;10.60;;;9.67;;
15712;SDS011;7957;51.608;6.916;2023-08-17T14:47:15;10.90;;;9.90;;
15712;SDS011;7957;51.608;6.916;2023-08-17T14:49:42;10.73;;;9.67;;
15712;SDS011;7957;51.608;6.916;2023-08-17T14:52:09;10.13;;;9.10;;
15712;SDS011;7957;51.608;6.916;2023-08-17T14:54:35;10.40;;;9.40;;
15712;SDS011;7957;51.608;6.916;2023-08-17T14:57:02;10.97;;;9.50;;